Time;durP1;ratioP1;P1;durP2;ratioP2;P2;SDS_P1;SDS_P2;PMS_P1;PMS_P2;Temp;Humidity;BMP_temperature;BMP_pressure;BME280_temperature;BME280_humidity;BME280_pressure;Samples;Min_cycle;Max_cycle;Signal;HPM_P1;HPM_P2
2021/06/16 00:00:21;;;;;;;14.30;9.75;;;21.20;99.90;;;;;;5032363;28;20052;-66
2021/06/16 00:02:48;;;;;;;17.42;10.02;;;21.20;99.90;;;;;;5034880;28;20737;-66
2021/06/16 00:05:21;;;;;;;16.02;9.90;;;21.20;99.90;;;;;;5034056;28;20053;-66
2021/06/16 00:07:48;;;;;;;15.38;9.80;;;21.20;99.90;;;;;;5034419;28;20052;-66
2021/06/16 00:10:17;;;;;;;14.18;9.35;;;21.20;99.90;;;;;;5034087;28;20045;-66
2021/06/16 00:12:44;;;;;;;13.30;8.82;;;21.10;99.90;;;;;;5035986;28;20132;-66
2021/06/16 00:15:15;;;;;;;17.38;9.80;;;21.10;99.90;;;;;;5032582;28;20048;-66
2021/06/16 00:17:42;;;;;;;14.48;9.05;;;21.10;99.90;;;;;;5035481;28;20459;-66
2021/06/16 00:20:10;;;;;;;17.40;10.05;;;21.10;99.90;;;;;;5035527;28;20044;-66
2021/06/16 00:22:39;;;;;;;18.95;10.20;;;21.00;99.90;;;;;;5034291;28;20052;-66
2021/06/16 00:25:07;;;;;;;16.40;11.07;;;21.00;99.90;;;;;;5034370;28;20088;-66
2021/06/16 00:27:34;;;;;;;15.82;9.77;;;21.00;99.90;;;;;;5032603;28;20048;-66
2021/06/16 00:30:01;;;;;;;22.38;10.50;;;20.90;99.90;;;;;;5033636;28;20048;-66
2021/06/16 00:32:29;;;;;;;16.25;9.82;;;20.90;99.90;;;;;;5033294;28;20082;-65
2021/06/16 00:34:56;;;;;;;18.42;9.73;;;20.90;99.90;;;;;;5034871;28;20110;-66
2021/06/16 00:37:23;;;;;;;14.55;9.50;;;20.90;99.90;;;;;;5034260;28;20130;-66
2021/06/16 00:39:51;;;;;;;15.77;9.77;;;20.90;99.90;;;;;;5033566;28;20463;-66
2021/06/16 00:42:18;;;;;;;16.77;10.13;;;20.90;99.90;;;;;;5034441;28;20059;-66
2021/06/16 00:44:45;;;;;;;16.33;10.07;;;20.90;99.90;;;;;;5035037;28;20595;-66
2021/06/16 00:47:12;;;;;;;17.52;11.27;;;20.80;99.90;;;;;;5034000;28;20479;-66
2021/06/16 00:49:39;;;;;;;17.40;10.85;;;20.80;99.90;;;;;;5033334;28;20118;-66
2021/06/16 00:52:06;;;;;;;17.92;11.20;;;20.80;99.90;;;;;;5033721;28;20048;-66
2021/06/16 00:54:34;;;;;;;16.45;10.98;;;20.80;99.90;;;;;;5031368;28;20044;-66
2021/06/16 00:57:03;;;;;;;14.48;9.93;;;20.80;99.90;;;;;;5038387;28;20060;-66
2021/06/16 00:59:36;;;;;;;19.52;9.85;;;20.80;99.90;;;;;;5036534;28;20101;-66
2021/06/16 01:02:05;;;;;;;17.40;10.60;;;20.70;99.90;;;;;;5036728;28;20048;-66
2021/06/16 01:04:33;;;;;;;15.40;10.20;;;20.70;99.90;;;;;;5037624;28;20501;-66
2021/06/16 01:07:07;;;;;;;17.20;11.15;;;20.70;99.90;;;;;;5037743;28;21106;-66
2021/06/16 01:09:38;;;;;;;18.30;10.23;;;20.60;99.90;;;;;;5036181;28;20044;-66
2021/06/16 01:12:24;;;;;;;16.65;10.55;;;20.60;99.90;;;;;;5037891;28;20090;-66
2021/06/16 01:14:53;;;;;;;16.52;11.48;;;20.60;99.90;;;;;;5038101;28;20069;-66
2021/06/16 01:17:23;;;;;;;13.82;9.82;;;20.60;99.90;;;;;;5036758;28;20052;-66
2021/06/16 01:20:09;;;;;;;17.10;11.25;;;20.50;99.90;;;;;;5036201;28;20048;-66
2021/06/16 01:22:42;;;;;;;16.48;10.45;;;20.50;99.90;;;;;;5037123;28;20125;-66
2021/06/16 01:25:18;;;;;;;25.77;11.70;;;20.40;99.90;;;;;;5037912;28;20490;-66
2021/06/16 01:27:47;;;;;;;18.92;12.00;;;20.30;99.90;;;;;;5036357;28;20063;-66
2021/06/16 01:30:15;;;;;;;17.35;10.82;;;20.30;99.90;;;;;;5036107;28;21919;-66
2021/06/16 01:32:42;;;;;;;20.98;10.55;;;20.20;99.90;;;;;;5035986;28;20048;-66
2021/06/16 01:35:11;;;;;;;17.48;11.23;;;20.30;99.90;;;;;;5036356;28;20118;-66
2021/06/16 01:37:38;;;;;;;17.50;10.23;;;20.30;99.90;;;;;;5034458;28;20493;-66
2021/06/16 01:40:07;;;;;;;19.75;11.18;;;20.30;99.90;;;;;;5036730;28;20060;-66
2021/06/16 01:42:34;;;;;;;18.00;11.10;;;20.30;99.90;;;;;;5037721;28;20060;-66
2021/06/16 01:45:04;;;;;;;17.58;10.20;;;20.20;99.90;;;;;;5040652;28;20052;-66
2021/06/16 01:47:31;;;;;;;18.95;10.45;;;20.30;99.90;;;;;;5037647;28;20052;-66
2021/06/16 01:50:03;;;;;;;17.83;10.45;;;20.30;99.90;;;;;;5039420;28;20110;-66
2021/06/16 01:52:32;;;;;;;17.90;11.43;;;20.30;99.90;;;;;;5040048;28;20052;-66
2021/06/16 01:55:00;;;;;;;18.67;11.23;;;20.20;99.90;;;;;;5040744;28;20084;-66
2021/06/16 01:57:27;;;;;;;15.43;11.15;;;20.10;99.90;;;;;;5038982;28;20056;-66
2021/06/16 01:59:57;;;;;;;19.77;11.52;;;20.00;99.90;;;;;;5037132;28;20141;-66
2021/06/16 02:02:25;;;;;;;23.77;12.27;;;20.00;99.90;;;;;;5039830;28;20056;-66
2021/06/16 02:04:53;;;;;;;17.23;11.57;;;20.00;99.90;;;;;;5038984;28;20076;-66
2021/06/16 02:07:25;;;;;;;22.58;11.55;;;20.00;99.90;;;;;;5039424;28;20056;-66
2021/06/16 02:09:54;;;;;;;21.05;11.60;;;19.90;99.90;;;;;;5038339;28;20133;-66
2021/06/16 02:12:22;;;;;;;17.02;11.85;;;19.90;99.90;;;;;;5038801;28;20099;-65
2021/06/16 02:14:54;;;;;;;19.13;11.70;;;19.90;99.90;;;;;;5038847;28;20137;-65
2021/06/16 02:17:22;;;;;;;19.08;11.75;;;19.80;99.90;;;;;;5040302;28;20505;-66
2021/06/16 02:19:53;;;;;;;20.50;12.73;;;19.70;99.90;;;;;;5038199;28;21530;-66
2021/06/16 02:22:21;;;;;;;20.75;12.82;;;19.70;99.90;;;;;;5037940;28;20080;-66
2021/06/16 02:24:48;;;;;;;20.13;12.23;;;19.70;99.90;;;;;;5036372;28;20105;-65
2021/06/16 02:27:15;;;;;;;18.75;11.90;;;19.60;99.90;;;;;;5036277;28;20501;-66
2021/06/16 02:29:42;;;;;;;20.75;12.60;;;19.60;99.90;;;;;;5035938;28;20475;-66
2021/06/16 02:32:10;;;;;;;19.73;12.93;;;19.70;99.90;;;;;;5036236;28;20449;-66
2021/06/16 02:34:37;;;;;;;17.23;12.30;;;19.70;99.90;;;;;;5036492;28;20105;-66
2021/06/16 02:37:08;;;;;;;20.38;12.20;;;19.70;99.90;;;;;;5036622;28;20045;-66
2021/06/16 02:39:39;;;;;;;16.95;11.68;;;19.60;99.90;;;;;;5035335;28;20757;-66
2021/06/16 02:42:09;;;;;;;19.23;11.98;;;19.60;99.90;;;;;;5036089;28;20056;-66
2021/06/16 02:44:40;;;;;;;20.05;11.77;;;19.60;99.90;;;;;;5034999;28;20106;-66
2021/06/16 02:47:08;;;;;;;20.02;12.30;;;19.50;99.90;;;;;;5034698;28;20153;-66
2021/06/16 02:49:39;;;;;;;20.05;13.07;;;19.50;99.90;;;;;;5035276;28;20723;-66
2021/06/16 02:52:12;;;;;;;20.13;12.73;;;19.50;99.90;;;;;;5036115;28;20463;-66
2021/06/16 02:54:41;;;;;;;20.70;12.40;;;19.40;99.90;;;;;;5036563;28;20060;-66
2021/06/16 02:57:09;;;;;;;22.10;12.70;;;19.40;99.90;;;;;;5035186;28;20141;-66
2021/06/16 02:59:38;;;;;;;20.65;13.43;;;19.40;99.90;;;;;;5034748;28;20041;-66
2021/06/16 03:02:06;;;;;;;18.15;12.35;;;19.40;99.90;;;;;;5035484;28;20045;-66
2021/06/16 03:04:34;;;;;;;17.35;11.77;;;19.40;99.90;;;;;;5033849;28;20061;-66
2021/06/16 03:07:03;;;;;;;23.17;13.68;;;19.40;99.90;;;;;;5035721;28;20068;-66
2021/06/16 03:09:33;;;;;;;22.70;13.20;;;19.30;99.90;;;;;;5034996;28;20049;-66
2021/06/16 03:12:01;;;;;;;25.80;13.45;;;19.40;99.90;;;;;;5034974;28;20060;-66
2021/06/16 03:14:30;;;;;;;17.05;12.95;;;19.30;99.90;;;;;;5035140;28;20060;-66
2021/06/16 03:16:59;;;;;;;18.45;11.88;;;19.40;99.90;;;;;;5035001;28;20052;-66
2021/06/16 03:19:27;;;;;;;22.63;13.82;;;19.40;99.90;;;;;;5034975;28;20056;-66
2021/06/16 03:21:56;;;;;;;22.25;13.30;;;19.40;99.90;;;;;;5035224;28;20051;-66
2021/06/16 03:24:25;;;;;;;20.13;13.27;;;19.40;99.90;;;;;;5035865;28;20048;-66
2021/06/16 03:26:53;;;;;;;25.15;13.63;;;19.40;99.90;;;;;;5035195;28;20071;-66
2021/06/16 03:29:21;;;;;;;21.95;13.98;;;19.40;99.90;;;;;;5034087;28;20052;-65
2021/06/16 03:31:48;;;;;;;20.38;13.68;;;19.40;99.90;;;;;;5035510;28;20079;-66
2021/06/16 03:34:16;;;;;;;20.20;13.27;;;19.40;99.90;;;;;;5033523;28;20048;-66
2021/06/16 03:36:46;;;;;;;19.63;13.40;;;19.30;99.90;;;;;;5035062;28;21203;-66
2021/06/16 03:39:15;;;;;;;21.77;13.43;;;19.30;99.90;;;;;;5034589;28;20052;-66
2021/06/16 03:41:43;;;;;;;25.58;13.75;;;19.30;99.90;;;;;;5035279;28;20079;-66
2021/06/16 03:44:12;;;;;;;19.80;13.70;;;19.30;99.90;;;;;;5034424;28;20573;-65
2021/06/16 03:46:41;;;;;;;22.45;14.90;;;19.30;99.90;;;;;;5035137;28;20041;-65
2021/06/16 03:49:12;;;;;;;20.85;13.93;;;19.40;99.90;;;;;;5035083;28;20113;-66
2021/06/16 03:51:41;;;;;;;19.63;13.55;;;19.40;99.90;;;;;;5033793;28;20049;-66
2021/06/16 03:54:12;;;;;;;22.70;14.48;;;19.30;99.90;;;;;;5036219;28;20079;-66
2021/06/16 03:56:40;;;;;;;19.02;13.10;;;19.40;99.90;;;;;;5034250;28;20044;-66
2021/06/16 03:59:08;;;;;;;20.30;14.35;;;19.40;99.90;;;;;;5034323;28;20094;-66
2021/06/16 04:01:38;;;;;;;21.25;13.95;;;19.50;99.90;;;;;;5032893;28;20048;-66
2021/06/16 04:04:06;;;;;;;19.58;12.88;;;19.50;99.90;;;;;;5032580;28;20528;-66
2021/06/16 04:06:34;;;;;;;21.95;13.90;;;19.50;99.90;;;;;;5033370;28;20057;-66
2021/06/16 04:09:03;;;;;;;21.65;15.15;;;19.60;99.90;;;;;;5035877;28;20121;-66
2021/06/16 04:11:31;;;;;;;21.98;14.18;;;19.60;99.90;;;;;;5032787;28;20518;-66
2021/06/16 04:14:00;;;;;;;19.90;13.75;;;19.50;99.90;;;;;;5034334;28;20098;-66
2021/06/16 04:16:28;;;;;;;20.83;13.50;;;19.70;99.90;;;;;;5032309;28;20045;-66
2021/06/16 04:18:56;;;;;;;20.25;14.68;;;19.70;99.90;;;;;;5034959;28;20106;-65
2021/06/16 04:21:24;;;;;;;18.02;13.68;;;19.70;99.90;;;;;;5032633;28;20603;-66
2021/06/16 04:23:52;;;;;;;18.92;12.95;;;19.70;99.90;;;;;;5035516;28;20060;-66
2021/06/16 04:26:21;;;;;;;22.30;14.05;;;19.70;99.90;;;;;;5033576;28;20053;-66
2021/06/16 04:28:48;;;;;;;21.88;13.43;;;19.60;99.90;;;;;;5039547;28;20593;-65
2021/06/16 04:31:16;;;;;;;23.02;14.40;;;19.70;99.90;;;;;;5038297;28;20049;-66
2021/06/16 04:33:43;;;;;;;23.95;14.02;;;19.80;99.90;;;;;;5039025;28;20053;-65
2021/06/16 04:36:12;;;;;;;21.38;14.00;;;19.90;99.90;;;;;;5038933;28;20044;-65
2021/06/16 04:38:39;;;;;;;21.65;14.38;;;19.90;99.90;;;;;;5042066;28;20413;-66
2021/06/16 04:41:06;;;;;;;20.35;13.93;;;19.90;99.90;;;;;;5040821;28;20052;-66
2021/06/16 04:43:34;;;;;;;21.60;14.50;;;19.90;99.90;;;;;;5035798;28;20048;-66
2021/06/16 04:46:01;;;;;;;20.52;14.00;;;19.90;99.90;;;;;;5035512;28;20167;-65
2021/06/16 04:48:28;;;;;;;19.85;13.38;;;20.00;99.90;;;;;;5038120;28;20586;-65
2021/06/16 04:50:55;;;;;;;19.40;13.00;;;20.00;99.90;;;;;;5035942;28;20045;-66
2021/06/16 04:53:23;;;;;;;18.88;12.82;;;20.10;99.90;;;;;;5022445;28;20071;-66
2021/06/16 04:55:50;;;;;;;19.13;13.68;;;20.10;99.90;;;;;;5033825;28;20080;-66
2021/06/16 04:58:17;;;;;;;23.65;14.18;;;20.20;99.90;;;;;;5035142;28;20048;-68
2021/06/16 05:00:44;;;;;;;19.80;12.25;;;20.10;99.90;;;;;;5025192;28;20114;-67
2021/06/16 05:03:11;;;;;;;23.92;14.10;;;20.30;99.90;;;;;;5025502;28;20048;-67
2021/06/16 05:05:38;;;;;;;21.90;14.43;;;20.40;99.90;;;;;;5035545;28;20053;-67
2021/06/16 05:08:06;;;;;;;22.35;13.05;;;20.40;99.90;;;;;;5037241;28;20068;-69
2021/06/16 05:10:34;;;;;;;24.02;14.40;;;20.40;99.90;;;;;;5032712;28;20052;-67
2021/06/16 05:13:02;;;;;;;23.33;13.43;;;20.50;99.90;;;;;;5035873;28;21587;-66
2021/06/16 05:15:29;;;;;;;20.65;13.55;;;20.50;99.90;;;;;;5033455;28;20412;-66
2021/06/16 05:17:56;;;;;;;24.50;13.70;;;20.40;99.90;;;;;;5038347;28;20060;-65
2021/06/16 05:20:26;;;;;;;20.85;13.27;;;20.50;99.90;;;;;;5034435;28;20075;-66
2021/06/16 05:22:56;;;;;;;23.80;13.82;;;20.50;99.90;;;;;;5040929;28;20056;-66
2021/06/16 05:25:23;;;;;;;24.33;14.35;;;20.50;99.90;;;;;;5040464;28;20197;-65
2021/06/16 05:27:51;;;;;;;22.50;12.88;;;20.50;99.90;;;;;;5044709;28;20052;-65
2021/06/16 05:30:20;;;;;;;21.73;13.32;;;20.60;99.90;;;;;;5041452;28;20478;-65
2021/06/16 05:32:47;;;;;;;22.75;12.93;;;20.60;99.90;;;;;;5042538;28;20447;-65
2021/06/16 05:35:14;;;;;;;26.92;14.10;;;20.60;99.90;;;;;;5036166;28;20090;-66
2021/06/16 05:37:45;;;;;;;23.48;12.57;;;20.80;99.90;;;;;;5041592;28;20041;-65
2021/06/16 05:40:13;;;;;;;20.52;12.68;;;20.70;99.90;;;;;;5042578;28;20052;-66
2021/06/16 05:42:40;;;;;;;25.05;13.00;;;20.80;99.90;;;;;;5043348;28;20040;-65
2021/06/16 05:45:10;;;;;;;22.02;12.90;;;20.90;99.90;;;;;;5039096;28;20052;-65
2021/06/16 05:47:37;;;;;;;25.70;13.98;;;20.90;99.90;;;;;;5042503;28;20044;-65
2021/06/16 05:50:05;;;;;;;21.17;13.40;;;20.90;99.90;;;;;;5042972;28;20083;-65
2021/06/16 05:52:32;;;;;;;20.55;13.90;;;21.10;99.90;;;;;;5041484;28;20052;-65
2021/06/16 05:54:59;;;;;;;23.98;13.65;;;21.10;99.90;;;;;;5044042;28;20137;-66
2021/06/16 05:57:26;;;;;;;24.40;14.60;;;21.10;99.90;;;;;;5042773;28;20052;-65
2021/06/16 05:59:53;;;;;;;22.40;13.95;;;21.20;99.90;;;;;;5041671;28;20095;-65
2021/06/16 06:02:22;;;;;;;22.27;13.52;;;21.10;99.90;;;;;;5043535;28;21007;-65
2021/06/16 06:04:49;;;;;;;20.95;13.88;;;21.10;99.90;;;;;;5038830;28;20041;-66
2021/06/16 06:07:16;;;;;;;25.65;13.93;;;21.10;99.90;;;;;;5036771;28;20453;-65
2021/06/16 06:09:43;;;;;;;22.98;13.38;;;21.20;99.90;;;;;;5036670;28;20345;-66
2021/06/16 06:12:10;;;;;;;22.38;13.82;;;21.40;99.90;;;;;;5037750;28;20040;-66
2021/06/16 06:14:37;;;;;;;23.20;13.85;;;21.50;99.90;;;;;;5038027;28;20519;-65
2021/06/16 06:17:05;;;;;;;20.50;13.32;;;21.50;99.90;;;;;;5040467;28;20348;-66
2021/06/16 06:19:33;;;;;;;24.02;14.40;;;21.50;99.90;;;;;;5040361;28;20099;-65
2021/06/16 06:22:00;;;;;;;23.35;13.18;;;21.60;99.90;;;;;;5042687;28;20471;-66
2021/06/16 06:24:27;;;;;;;23.92;13.55;;;21.80;99.90;;;;;;5042700;28;20226;-65
2021/06/16 06:26:54;;;;;;;21.88;12.68;;;21.80;99.90;;;;;;5043163;28;20570;-65
2021/06/16 06:29:22;;;;;;;23.15;12.30;;;21.90;99.90;;;;;;5043390;28;20122;-65
2021/06/16 06:31:49;;;;;;;22.38;11.75;;;22.00;99.90;;;;;;5041233;28;20783;-65
2021/06/16 06:34:15;;;;;;;22.42;12.75;;;22.00;99.90;;;;;;5042341;28;20832;-65
2021/06/16 06:36:44;;;;;;;18.98;11.95;;;22.00;99.90;;;;;;5043415;28;20088;-65
2021/06/16 06:39:11;;;;;;;24.75;13.20;;;22.10;99.90;;;;;;5043454;28;20076;-65
2021/06/16 06:41:38;;;;;;;24.20;13.43;;;22.20;99.90;;;;;;5042864;28;20811;-65
2021/06/16 06:44:05;;;;;;;22.55;11.90;;;22.20;99.90;;;;;;5043684;28;20472;-65
2021/06/16 06:46:32;;;;;;;23.38;11.90;;;22.30;99.90;;;;;;5042931;28;20052;-65
2021/06/16 06:48:59;;;;;;;23.88;11.43;;;22.50;99.90;;;;;;5044827;28;20091;-67
2021/06/16 06:51:26;;;;;;;19.80;10.20;;;22.70;99.90;;;;;;5041025;28;20506;-66
2021/06/16 06:53:55;;;;;;;19.35;10.35;;;23.00;99.90;;;;;;5044452;28;20087;-66
2021/06/16 06:56:22;;;;;;;15.80;10.02;;;23.20;99.90;;;;;;5041864;28;20094;-66
2021/06/16 06:58:49;;;;;;;16.73;10.77;;;23.20;99.90;;;;;;5042224;28;20470;-65
2021/06/16 07:01:16;;;;;;;18.23;9.93;;;23.30;99.90;;;;;;5041124;28;20083;-65
2021/06/16 07:03:42;;;;;;;19.17;10.35;;;23.40;99.90;;;;;;5043496;28;20117;-65
2021/06/16 07:06:09;;;;;;;19.52;10.23;;;23.60;99.90;;;;;;5043860;28;20110;-66
2021/06/16 07:08:36;;;;;;;17.13;9.38;;;23.60;99.90;;;;;;5042837;28;20118;-66
2021/06/16 07:11:05;;;;;;;24.52;10.68;;;23.80;99.90;;;;;;5042770;28;20109;-66
2021/06/16 07:13:32;;;;;;;17.63;9.82;;;23.90;99.90;;;;;;5041883;28;20090;-66
2021/06/16 07:15:59;;;;;;;16.08;10.13;;;24.00;99.90;;;;;;5043376;28;20098;-66
2021/06/16 07:18:26;;;;;;;21.52;10.40;;;24.10;99.90;;;;;;5042291;28;20040;-66
2021/06/16 07:20:53;;;;;;;31.60;11.15;;;24.20;99.90;;;;;;5041828;28;20099;-66
2021/06/16 07:23:20;;;;;;;21.20;10.07;;;24.30;99.90;;;;;;5042547;28;20501;-66
2021/06/16 07:25:47;;;;;;;24.48;9.77;;;24.50;99.90;;;;;;5043323;28;20052;-66
2021/06/16 07:28:15;;;;;;;21.45;8.45;;;24.60;99.90;;;;;;5042744;28;20551;-66
2021/06/16 07:30:42;;;;;;;15.95;8.73;;;24.80;99.90;;;;;;5042497;28;20040;-66
2021/06/16 07:33:10;;;;;;;22.85;8.98;;;24.90;99.90;;;;;;5042140;28;21001;-66
2021/06/16 07:35:37;;;;;;;15.63;8.07;;;25.00;99.90;;;;;;5042949;28;20049;-66
2021/06/16 07:38:05;;;;;;;17.13;8.43;;;25.20;99.90;;;;;;5043758;28;20145;-66
2021/06/16 07:40:32;;;;;;;15.45;8.55;;;25.30;99.90;;;;;;5041455;28;20110;-66
2021/06/16 07:42:59;;;;;;;16.17;8.10;;;25.50;99.90;;;;;;5042790;28;20056;-66
2021/06/16 07:45:27;;;;;;;15.18;8.65;;;25.70;99.90;;;;;;5043400;28;20063;-67
2021/06/16 07:47:54;;;;;;;23.67;9.35;;;25.80;99.90;;;;;;5043273;28;20106;-66
2021/06/16 07:50:22;;;;;;;18.35;7.93;;;26.00;99.90;;;;;;5039811;28;20060;-66
2021/06/16 07:52:49;;;;;;;15.10;8.30;;;26.20;99.90;;;;;;5046277;28;20080;-66
2021/06/16 07:55:16;;;;;;;18.13;8.02;;;26.30;99.90;;;;;;5045341;28;20126;-66
2021/06/16 07:57:43;;;;;;;13.35;7.78;;;26.50;99.90;;;;;;5044443;28;20521;-66
2021/06/16 08:00:11;;;;;;;13.13;8.30;;;26.60;99.90;;;;;;5030572;28;20053;-66
2021/06/16 08:02:40;;;;;;;15.25;7.65;;;26.60;99.90;;;;;;5044910;28;20138;-66
2021/06/16 08:05:08;;;;;;;15.45;8.35;;;26.80;99.90;;;;;;5043156;28;20489;-66
2021/06/16 08:07:35;;;;;;;14.57;7.53;;;26.90;99.90;;;;;;5043178;28;20476;-66
2021/06/16 08:10:03;;;;;;;12.50;7.72;;;27.00;99.90;;;;;;5040435;28;20134;-66
2021/06/16 08:12:30;;;;;;;13.93;7.65;;;27.20;99.90;;;;;;5041603;28;20052;-66
2021/06/16 08:14:57;;;;;;;16.38;7.35;;;27.20;99.90;;;;;;5044095;28;20310;-66
2021/06/16 08:17:24;;;;;;;12.85;7.20;;;27.30;99.90;;;;;;5038850;28;21086;-66
2021/06/16 08:19:52;;;;;;;11.57;7.18;;;27.40;99.90;;;;;;5028594;28;20099;-66
2021/06/16 08:22:19;;;;;;;10.52;7.32;;;27.60;99.90;;;;;;5040536;28;20041;-66
2021/06/16 08:24:46;;;;;;;13.32;6.90;;;27.80;99.90;;;;;;5041980;28;20084;-66
2021/06/16 08:27:13;;;;;;;10.68;7.00;;;27.70;99.90;;;;;;5041519;28;20106;-66
2021/06/16 08:29:40;;;;;;;10.52;6.85;;;27.90;99.90;;;;;;5041171;28;20111;-66
2021/06/16 08:32:08;;;;;;;11.73;7.05;;;27.90;99.90;;;;;;5041805;28;20577;-66
2021/06/16 08:34:36;;;;;;;11.85;6.93;;;28.10;99.90;;;;;;5042657;28;20073;-66
2021/06/16 08:37:05;;;;;;;13.77;7.57;;;28.10;99.90;;;;;;5043687;28;20054;-66
2021/06/16 08:39:32;;;;;;;11.40;7.43;;;27.90;99.90;;;;;;5044614;28;20131;-66
2021/06/16 08:42:01;;;;;;;11.60;7.28;;;27.90;99.90;;;;;;5043703;28;20053;-66
2021/06/16 08:44:28;;;;;;;17.17;7.70;;;28.10;99.90;;;;;;5044048;28;20103;-66
2021/06/16 08:46:57;;;;;;;12.57;7.60;;;28.20;99.90;;;;;;5033517;28;20598;-66
2021/06/16 08:49:24;;;;;;;16.13;8.20;;;28.40;99.90;;;;;;5040314;28;20040;-66
2021/06/16 08:51:51;;;;;;;17.13;8.05;;;28.70;99.90;;;;;;5037103;28;20056;-66
2021/06/16 08:54:19;;;;;;;10.38;7.70;;;28.90;99.90;;;;;;5029435;28;20496;-66
2021/06/16 08:56:46;;;;;;;13.98;8.13;;;29.00;99.90;;;;;;5042865;28;20052;-66
2021/06/16 08:59:13;;;;;;;21.20;8.48;;;29.30;99.90;;;;;;5043316;28;20044;-66
2021/06/16 09:01:40;;;;;;;14.25;7.40;;;29.50;99.90;;;;;;5044201;28;20052;-66
2021/06/16 09:04:08;;;;;;;13.00;7.38;;;29.90;99.90;;;;;;5043761;28;20048;-66
2021/06/16 09:06:35;;;;;;;13.98;8.55;;;30.20;99.90;;;;;;5041973;28;20048;-66
2021/06/16 09:09:05;;;;;;;13.35;7.32;;;30.10;99.90;;;;;;5044055;28;20052;-66
2021/06/16 09:11:50;;;;;;;11.07;7.35;;;30.50;99.90;;;;;;5041649;28;20505;-66
2021/06/16 09:14:18;;;;;;;11.13;8.20;;;30.90;99.90;;;;;;5043913;28;20400;-66
2021/06/16 09:16:46;;;;;;;12.13;7.70;;;30.90;99.90;;;;;;5043379;28;20540;-66
2021/06/16 09:19:24;;;;;;;18.92;8.68;;;31.40;99.90;;;;;;5042532;28;20464;-66
2021/06/16 09:21:59;;;;;;;16.05;8.32;;;31.80;99.90;;;;;;5040470;28;20412;-66
2021/06/16 09:24:40;;;;;;;11.68;8.60;;;32.30;99.90;;;;;;5043840;28;20451;-66
2021/06/16 09:27:08;;;;;;;16.27;8.25;;;32.30;99.90;;;;;;5042156;28;20068;-66
2021/06/16 09:29:35;;;;;;;11.88;7.75;;;32.30;99.90;;;;;;5044156;28;20053;-66
2021/06/16 09:32:04;;;;;;;24.88;8.70;;;32.40;99.90;;;;;;5044548;28;20045;-66
2021/06/16 09:34:32;;;;;;;17.02;8.45;;;32.20;99.90;;;;;;5044351;28;20127;-66
2021/06/16 09:37:05;;;;;;;22.98;8.45;;;32.40;99.90;;;;;;5044371;28;20104;-66
2021/06/16 09:39:33;;;;;;;13.70;8.10;;;32.60;99.90;;;;;;5041710;28;20071;-66
2021/06/16 09:42:02;;;;;;;12.52;8.32;;;32.90;99.90;;;;;;5040312;28;20045;-66
2021/06/16 09:44:46;;;;;;;12.10;8.77;;;33.40;99.90;;;;;;5039848;28;20045;-66
2021/06/16 09:47:17;;;;;;;13.57;7.95;;;32.90;99.90;;;;;;5039699;28;20097;-66
2021/06/16 09:49:56;;;;;;;17.20;8.98;;;33.00;99.90;;;;;;5038806;28;20054;-66
2021/06/16 09:52:28;;;;;;;12.02;7.55;;;32.70;99.90;;;;;;5036854;28;20763;-66
2021/06/16 09:54:55;;;;;;;14.38;7.80;;;32.90;99.90;;;;;;5038208;28;20048;-66
2021/06/16 09:57:22;;;;;;;13.77;7.95;;;33.10;99.90;;;;;;5037972;28;20064;-66
2021/06/16 09:59:51;;;;;;;12.30;8.20;;;33.10;99.90;;;;;;5038337;28;20083;-66
2021/06/16 10:02:20;;;;;;;13.25;7.65;;;33.20;99.90;;;;;;5039739;28;21191;-66
2021/06/16 10:04:49;;;;;;;11.63;7.65;;;33.40;99.90;;;;;;5038615;28;20041;-66
2021/06/16 10:07:19;;;;;;;12.50;8.00;;;33.70;99.90;;;;;;5038766;28;20063;-66
2021/06/16 10:09:52;;;;;;;12.77;6.93;;;34.20;99.90;;;;;;5040130;28;20071;-66
2021/06/16 10:12:20;;;;;;;13.27;7.35;;;34.40;99.90;;;;;;5039692;28;20107;-66
2021/06/16 10:14:48;;;;;;;10.55;7.10;;;34.50;99.90;;;;;;5039898;28;20181;-66
2021/06/16 10:17:16;;;;;;;10.90;7.88;;;34.80;99.90;;;;;;5040476;28;20040;-66
2021/06/16 10:19:44;;;;;;;12.35;6.95;;;34.40;99.90;;;;;;5038326;28;20053;-66
2021/06/16 10:22:12;;;;;;;10.73;6.47;;;34.80;99.90;;;;;;5040495;28;20051;-66
2021/06/16 10:24:39;;;;;;;16.02;7.80;;;35.20;99.60;;;;;;5039917;28;20056;-66
2021/06/16 10:27:09;;;;;;;14.35;7.70;;;35.30;98.60;;;;;;5041130;28;20083;-65
2021/06/16 10:29:42;;;;;;;12.20;7.32;;;35.40;97.90;;;;;;5038859;28;20060;-66
2021/06/16 10:32:11;;;;;;;16.88;7.80;;;35.40;97.70;;;;;;5036515;28;20076;-66
2021/06/16 10:35:02;;;;;;;13.18;6.57;;;35.20;96.40;;;;;;5041515;28;20052;-66
2021/06/16 10:37:31;;;;;;;11.60;7.40;;;35.50;96.10;;;;;;5036531;28;20052;-66
2021/06/16 10:40:38;;;;;;;10.77;7.60;;;35.60;95.70;;;;;;5036849;28;20079;-66
2021/06/16 10:43:17;;;;;;;10.90;7.22;;;36.10;94.60;;;;;;5039378;28;20076;-67
2021/06/16 10:45:53;;;;;;;12.85;7.75;;;36.30;95.10;;;;;;5035985;28;20110;-66
2021/06/16 10:48:21;;;;;;;13.02;7.75;;;36.40;92.90;;;;;;5034352;28;20055;-66
2021/06/16 10:51:04;;;;;;;9.02;6.28;;;36.10;93.70;;;;;;5038277;28;20063;-67
2021/06/16 10:53:31;;;;;;;8.48;4.38;;;36.40;92.90;;;;;;5040150;28;20497;-66
2021/06/16 10:56:08;;;;;;;6.13;4.00;;;35.40;85.70;;;;;;5042641;28;20048;-66
2021/06/16 10:58:44;;;;;;;7.68;3.70;;;35.40;86.20;;;;;;5042455;28;20476;-66
2021/06/16 11:01:13;;;;;;;7.32;3.85;;;35.10;85.40;;;;;;5044138;28;20040;-66
2021/06/16 11:04:02;;;;;;;5.78;3.08;;;35.60;81.30;;;;;;5043112;28;20051;-66
2021/06/16 11:06:40;;;;;;;8.55;2.90;;;35.90;71.60;;;;;;5041216;28;20049;-66
2021/06/16 11:09:09;;;;;;;6.07;3.28;;;35.90;74.90;;;;;;5044627;28;20137;-67
2021/06/16 11:12:16;;;;;;;6.63;3.40;;;35.80;76.60;;;;;;5043414;28;20052;-66
2021/06/16 11:14:50;;;;;;;6.78;3.67;;;36.70;73.40;;;;;;5040173;28;20336;-66
2021/06/16 11:17:42;;;;;;;10.15;3.78;;;35.50;74.00;;;;;;5043168;28;20397;-66
2021/06/16 11:20:14;;;;;;;8.93;3.80;;;35.80;77.60;;;;;;5038690;28;20473;-66
2021/06/16 11:22:48;;;;;;;7.05;3.63;;;36.70;76.00;;;;;;5038408;28;20045;-67
2021/06/16 11:25:27;;;;;;;7.30;3.17;;;35.10;72.20;;;;;;5035501;28;20549;-66
2021/06/16 11:28:13;;;;;;;6.15;3.95;;;34.90;73.20;;;;;;5034983;28;20050;-66
2021/06/16 11:30:46;;;;;;;5.47;3.28;;;35.00;71.90;;;;;;5035599;28;20942;-66
2021/06/16 11:33:30;;;;;;;7.22;3.80;;;35.00;70.70;;;;;;5033231;28;20049;-66
2021/06/16 11:36:00;;;;;;;8.68;3.22;;;34.60;69.90;;;;;;5031949;28;20049;-66
2021/06/16 11:38:32;;;;;;;6.97;3.30;;;34.20;69.70;;;;;;5028426;28;20373;-66
2021/06/16 11:41:02;;;;;;;9.93;3.08;;;34.30;69.60;;;;;;5021900;28;20044;-66
2021/06/16 11:43:30;;;;;;;5.07;3.00;;;34.50;66.00;;;;;;5028859;28;20055;-66
2021/06/16 11:45:58;;;;;;;6.50;2.70;;;35.10;65.90;;;;;;5024401;28;20139;-66
2021/06/16 11:48:25;;;;;;;6.32;2.72;;;35.60;65.90;;;;;;5028215;28;20050;-66
2021/06/16 11:50:52;;;;;;;6.22;2.63;;;35.90;61.40;;;;;;5028828;28;20040;-66
2021/06/16 11:53:27;;;;;;;5.40;2.60;;;35.60;62.60;;;;;;5033176;28;20048;-66
2021/06/16 11:55:56;;;;;;;4.38;3.17;;;35.80;61.20;;;;;;5033050;28;20055;-66
2021/06/16 11:58:25;;;;;;;6.60;3.08;;;35.80;64.20;;;;;;5030859;28;20136;-66
2021/06/16 12:00:53;;;;;;;8.50;2.97;;;36.10;62.70;;;;;;5036611;28;20457;-66
2021/06/16 12:03:20;;;;;;;6.30;3.40;;;35.50;62.20;;;;;;5031815;28;20474;-66
2021/06/16 12:05:47;;;;;;;7.45;3.38;;;35.40;62.60;;;;;;5034024;28;20502;-66
2021/06/16 12:08:24;;;;;;;7.43;2.97;;;36.00;62.50;;;;;;5032943;28;20109;-66
2021/06/16 12:10:51;;;;;;;5.45;3.08;;;36.00;61.40;;;;;;5032335;28;20079;-66
2021/06/16 12:13:19;;;;;;;5.20;3.10;;;36.90;62.20;;;;;;5033507;28;20052;-66
2021/06/16 12:15:46;;;;;;;4.28;2.85;;;36.80;62.40;;;;;;5034131;28;20059;-66
2021/06/16 12:18:14;;;;;;;4.30;3.05;;;36.70;62.50;;;;;;5036383;28;20394;-66
2021/06/16 12:20:44;;;;;;;6.85;3.25;;;37.40;61.60;;;;;;5032853;28;20060;-66
2021/06/16 12:23:29;;;;;;;8.32;3.70;;;36.60;58.60;;;;;;5037191;28;20056;-66
2021/06/16 12:26:06;;;;;;;6.78;3.72;;;36.60;58.90;;;;;;5035633;28;20055;-66
2021/06/16 12:28:36;;;;;;;6.03;3.30;;;36.10;59.70;;;;;;5036864;28;20045;-66
2021/06/16 12:31:04;;;;;;;6.97;2.88;;;36.50;59.80;;;;;;5034385;28;20079;-66
2021/06/16 12:33:41;;;;;;;6.35;3.33;;;36.40;61.30;;;;;;5034190;28;20132;-66
2021/06/16 12:36:18;;;;;;;4.38;3.05;;;36.00;59.10;;;;;;5038709;28;20056;-68
2021/06/16 12:38:47;;;;;;;9.73;3.20;;;35.90;60.90;;;;;;5037935;28;20874;-66
2021/06/16 12:41:31;;;;;;;6.53;3.08;;;35.90;59.80;;;;;;5026789;28;20425;-66
2021/06/16 12:44:15;;;;;;;6.07;3.72;;;36.60;62.20;;;;;;5034159;28;20049;-66